sensor_id;sensor_type;location;lat;lon;timestamp;pressure;altitude;pressure_sealevel;temperature;humidity
7824;BME280;3957;48.61947800;9.05303100;2023-09-12T00:00:36;95796.81;;;16.82;100.00
7824;BME280;3957;48.61947800;9.05303100;2023-09-12T00:01:37;95797.31;;;16.79;100.00
7824;BME280;3957;48.61947800;9.05303100;2023-09-12T00:02:39;95799.22;;;16.78;100.00
7824;BME280;3957;48.61947800;9.05303100;2023-09-12T00:03:41;95797.81;;;16.76;100.00
7824;BME280;3957;48.61947800;9.05303100;2023-09-12T00:04:42;95797.03;;;16.75;100.00
7824;BME280;3957;48.61947800;9.05303100;2023-09-12T00:05:51;95790.22;;;16.73;100.00
7824;BME280;3957;48.61947800;9.05303100;2023-09-12T00:06:52;95798.59;;;16.71;100.00
7824;BME280;3957;48.61947800;9.05303100;2023-09-12T00:07:54;95799.06;;;16.68;100.00
7824;BME280;3957;48.61947800;9.05303100;2023-09-12T00:08:55;95789.00;;;16.63;100.00
7824;BME280;3957;48.61947800;9.05303100;2023-09-12T00:09:57;95795.19;;;16.59;100.00
7824;BME280;3957;48.61947800;9.05303100;2023-09-12T00:11:06;95793.47;;;16.53;100.00
7824;BME280;3957;48.61947800;9.05303100;2023-09-12T00:12:14;95801.50;;;16.47;100.00
7824;BME280;3957;48.61947800;9.05303100;2023-09-12T00:13:17;95791.19;;;16.44;100.00
7824;BME280;3957;48.61947800;9.05303100;2023-09-12T00:14:18;95794.38;;;16.41;100.00
7824;BME280;3957;48.61947800;9.05303100;2023-09-12T00:15:20;95794.06;;;16.38;100.00
7824;BME280;3957;48.61947800;9.05303100;2023-09-12T00:16:21;95790.78;;;16.36;100.00
7824;BME280;3957;48.61947800;9.05303100;2023-09-12T00:17:23;95795.59;;;16.33;100.00
7824;BME280;3957;48.61947800;9.05303100;2023-09-12T00:18:25;95792.09;;;16.33;100.00
7824;BME280;3957;48.61947800;9.05303100;2023-09-12T00:19:27;95787.50;;;16.33;100.00
7824;BME280;3957;48.61947800;9.05303100;2023-09-12T00:20:28;95785.66;;;16.34;100.00
7824;BME280;3957;48.61947800;9.05303100;2023-09-12T00:21:30;95781.69;;;16.42;100.00
7824;BME280;3957;48.61947800;9.05303100;2023-09-12T00:22:31;95783.84;;;16.40;100.00
7824;BME280;3957;48.61947800;9.05303100;2023-09-12T00:23:33;95791.94;;;16.40;100.00
7824;BME280;3957;48.61947800;9.05303100;2023-09-12T00:24:35;95790.63;;;16.42;100.00
7824;BME280;3957;48.61947800;9.05303100;2023-09-12T00:25:36;95789.56;;;16.43;100.00
7824;BME280;3957;48.61947800;9.05303100;2023-09-12T00:26:37;95785.47;;;16.41;100.00
7824;BME280;3957;48.61947800;9.05303100;2023-09-12T00:27:39;95793.84;;;16.39;100.00
7824;BME280;3957;48.61947800;9.05303100;2023-09-12T00:28:41;95791.94;;;16.40;100.00
7824;BME280;3957;48.61947800;9.05303100;2023-09-12T00:29:43;95790.53;;;16.37;100.00
7824;BME280;3957;48.61947800;9.05303100;2023-09-12T00:30:45;95790.78;;;16.36;100.00
7824;BME280;3957;48.61947800;9.05303100;2023-09-12T00:31:46;95792.69;;;16.35;100.00
7824;BME280;3957;48.61947800;9.05303100;2023-09-12T00:32:48;95793.25;;;16.37;100.00
7824;BME280;3957;48.61947800;9.05303100;2023-09-12T00:33:49;95793.41;;;16.47;100.00
7824;BME280;3957;48.61947800;9.05303100;2023-09-12T00:34:51;95797.97;;;16.47;100.00
7824;BME280;3957;48.61947800;9.05303100;2023-09-12T00:35:52;95789.56;;;16.43;100.00
7824;BME280;3957;48.61947800;9.05303100;2023-09-12T00:36:54;95789.78;;;16.42;100.00
7824;BME280;3957;48.61947800;9.05303100;2023-09-12T00:37:56;95790.28;;;16.39;100.00
7824;BME280;3957;48.61947800;9.05303100;2023-09-12T00:38:58;95785.41;;;16.36;100.00
7824;BME280;3957;48.61947800;9.05303100;2023-09-12T00:39:59;95788.34;;;16.34;100.00
7824;BME280;3957;48.61947800;9.05303100;2023-09-12T00:41:01;95788.84;;;16.31;100.00
7824;BME280;3957;48.61947800;9.05303100;2023-09-12T00:42:02;95789.06;;;16.29;100.00
7824;BME280;3957;48.61947800;9.05303100;2023-09-12T00:43:05;95785.81;;;16.27;100.00
7824;BME280;3957;48.61947800;9.05303100;2023-09-12T00:44:07;95780.06;;;16.24;100.00
7824;BME280;3957;48.61947800;9.05303100;2023-09-12T00:45:09;95783.28;;;16.21;100.00
7824;BME280;3957;48.61947800;9.05303100;2023-09-12T00:46:14;95777.88;;;16.21;100.00
7824;BME280;3957;48.61947800;9.05303100;2023-09-12T00:47:20;95777.78;;;16.15;100.00
7824;BME280;3957;48.61947800;9.05303100;2023-09-12T00:48:23;95780.19;;;16.12;100.00
7824;BME280;3957;48.61947800;9.05303100;2023-09-12T00:49:26;95780.44;;;16.10;100.00
7824;BME280;3957;48.61947800;9.05303100;2023-09-12T00:50:29;95773.66;;;16.08;100.00
7824;BME280;3957;48.61947800;9.05303100;2023-09-12T00:51:32;95771.19;;;16.06;100.00
7824;BME280;3957;48.61947800;9.05303100;2023-09-12T00:52:36;95774.94;;;16.05;100.00
7824;BME280;3957;48.61947800;9.05303100;2023-09-12T00:53:40;95775.75;;;16.06;100.00
7824;BME280;3957;48.61947800;9.05303100;2023-09-12T00:54:41;95774.38;;;16.03;100.00
7824;BME280;3957;48.61947800;9.05303100;2023-09-12T00:55:48;95770.88;;;16.03;100.00
7824;BME280;3957;48.61947800;9.05303100;2023-09-12T00:56:52;95774.63;;;16.02;100.00
7824;BME280;3957;48.61947800;9.05303100;2023-09-12T00:57:54;95774.06;;;16.00;100.00
7824;BME280;3957;48.61947800;9.05303100;2023-09-12T00:58:56;95768.06;;;15.97;100.00
7824;BME280;3957;48.61947800;9.05303100;2023-09-12T00:59:58;95771.03;;;15.96;100.00
7824;BME280;3957;48.61947800;9.05303100;2023-09-12T01:01:01;95767.75;;;15.94;100.00
7824;BME280;3957;48.61947800;9.05303100;2023-09-12T01:02:03;95756.38;;;15.92;100.00
7824;BME280;3957;48.61947800;9.05303100;2023-09-12T01:03:05;95759.34;;;15.90;100.00
7824;BME280;3957;48.61947800;9.05303100;2023-09-12T01:04:07;95767.69;;;15.89;100.00
7824;BME280;3957;48.61947800;9.05303100;2023-09-12T01:05:28;95763.50;;;15.81;100.00
7824;BME280;3957;48.61947800;9.05303100;2023-09-12T01:06:31;95765.59;;;15.79;100.00
7824;BME280;3957;48.61947800;9.05303100;2023-09-12T01:07:36;95761.88;;;15.80;100.00
7824;BME280;3957;48.61947800;9.05303100;2023-09-12T01:08:37;95767.28;;;15.80;100.00
7824;BME280;3957;48.61947800;9.05303100;2023-09-12T01:09:40;95765.38;;;15.80;100.00
7824;BME280;3957;48.61947800;9.05303100;2023-09-12T01:10:42;95772.66;;;15.80;100.00
7824;BME280;3957;48.61947800;9.05303100;2023-09-12T01:11:47;95765.00;;;15.77;100.00
7824;BME280;3957;48.61947800;9.05303100;2023-09-12T01:12:48;95776.06;;;15.75;100.00
7824;BME280;3957;48.61947800;9.05303100;2023-09-12T01:13:50;95764.38;;;15.70;100.00
7824;BME280;3957;48.61947800;9.05303100;2023-09-12T01:14:51;95767.06;;;15.70;100.00
7824;BME280;3957;48.61947800;9.05303100;2023-09-12T01:15:53;95764.59;;;15.68;100.00
7824;BME280;3957;48.61947800;9.05303100;2023-09-12T01:16:55;95769.50;;;15.71;100.00
7824;BME280;3957;48.61947800;9.05303100;2023-09-12T01:17:57;95765.19;;;15.70;100.00
7824;BME280;3957;48.61947800;9.05303100;2023-09-12T01:18:59;95764.13;;;15.71;100.00
7824;BME280;3957;48.61947800;9.05303100;2023-09-12T01:20:03;95771.16;;;15.72;100.00
7824;BME280;3957;48.61947800;9.05303100;2023-09-12T01:26:56;95774.53;;;15.79;100.00
7824;BME280;3957;48.61947800;9.05303100;2023-09-12T01:28:02;95775.81;;;15.77;100.00
7824;BME280;3957;48.61947800;9.05303100;2023-09-12T01:29:06;95776.06;;;15.75;100.00
7824;BME280;3957;48.61947800;9.05303100;2023-09-12T01:30:09;95773.59;;;15.74;100.00
7824;BME280;3957;48.61947800;9.05303100;2023-09-12T01:31:12;95769.75;;;15.70;100.00
7824;BME280;3957;48.61947800;9.05303100;2023-09-12T01:32:14;95772.94;;;15.67;100.00
7824;BME280;3957;48.61947800;9.05303100;2023-09-12T01:33:17;95769.44;;;15.66;100.00
7824;BME280;3957;48.61947800;9.05303100;2023-09-12T01:34:19;95776.94;;;15.64;100.00
7824;BME280;3957;48.61947800;9.05303100;2023-09-12T01:35:20;95771.00;;;15.62;100.00
7824;BME280;3957;48.61947800;9.05303100;2023-09-12T01:36:22;95776.03;;;15.58;100.00
7824;BME280;3957;48.61947800;9.05303100;2023-09-12T01:37:23;95776.28;;;15.57;100.00
7824;BME280;3957;48.61947800;9.05303100;2023-09-12T01:38:25;95768.44;;;15.55;100.00
7824;BME280;3957;48.61947800;9.05303100;2023-09-12T01:39:26;95770.56;;;15.53;100.00
7824;BME280;3957;48.61947800;9.05303100;2023-09-12T01:40:50;95772.44;;;15.53;100.00
7824;BME280;3957;48.61947800;9.05303100;2023-09-12T01:41:53;95778.09;;;15.51;100.00
7824;BME280;3957;48.61947800;9.05303100;2023-09-12T01:42:56;95773.75;;;15.50;100.00
7824;BME280;3957;48.61947800;9.05303100;2023-09-12T01:43:59;95771.28;;;15.48;100.00
7824;BME280;3957;48.61947800;9.05303100;2023-09-12T01:45:04;95765.56;;;15.45;100.00
7824;BME280;3957;48.61947800;9.05303100;2023-09-12T01:46:06;95775.28;;;15.46;100.00
7824;BME280;3957;48.61947800;9.05303100;2023-09-12T01:47:07;95770.13;;;15.44;100.00
7824;BME280;3957;48.61947800;9.05303100;2023-09-12T01:48:11;95767.09;;;15.41;100.00
7824;BME280;3957;48.61947800;9.05303100;2023-09-12T01:49:14;95773.09;;;15.43;100.00
7824;BME280;3957;48.61947800;9.05303100;2023-09-12T01:50:16;95774.94;;;15.42;100.00
7824;BME280;3957;48.61947800;9.05303100;2023-09-12T01:51:18;95775.78;;;15.43;100.00
7824;BME280;3957;48.61947800;9.05303100;2023-09-12T01:52:21;95769.53;;;15.42;100.00
7824;BME280;3957;48.61947800;9.05303100;2023-09-12T01:53:23;95769.91;;;15.46;100.00
7824;BME280;3957;48.61947800;9.05303100;2023-09-12T01:54:26;95776.09;;;15.46;100.00
7824;BME280;3957;48.61947800;9.05303100;2023-09-12T01:55:28;95770.69;;;15.46;100.00
7824;BME280;3957;48.61947800;9.05303100;2023-09-12T01:56:31;95768.00;;;15.46;100.00
7824;BME280;3957;48.61947800;9.05303100;2023-09-12T01:57:32;95766.94;;;15.47;100.00
7824;BME280;3957;48.61947800;9.05303100;2023-09-12T01:58:35;95764.25;;;15.47;100.00
7824;BME280;3957;48.61947800;9.05303100;2023-09-12T01:59:37;95769.66;;;15.47;100.00
7824;BME280;3957;48.61947800;9.05303100;2023-09-12T02:00:39;95763.44;;;15.47;100.00
7824;BME280;3957;48.61947800;9.05303100;2023-09-12T02:01:41;95765.31;;;15.46;100.00
7824;BME280;3957;48.61947800;9.05303100;2023-09-12T02:02:44;95765.31;;;15.46;100.00
7824;BME280;3957;48.61947800;9.05303100;2023-09-12T02:03:45;95766.38;;;15.45;100.00
7824;BME280;3957;48.61947800;9.05303100;2023-09-12T02:05:11;95764.16;;;15.42;100.00
7824;BME280;3957;48.61947800;9.05303100;2023-09-12T02:06:13;95760.41;;;15.43;100.00
7824;BME280;3957;48.61947800;9.05303100;2023-09-12T02:07:15;95763.25;;;15.37;100.00
7824;BME280;3957;48.61947800;9.05303100;2023-09-12T02:08:16;95761.63;;;15.36;100.00
7824;BME280;3957;48.61947800;9.05303100;2023-09-12T02:09:18;95762.44;;;15.36;100.00
7824;BME280;3957;48.61947800;9.05303100;2023-09-12T02:10:21;95765.38;;;15.35;100.00
7824;BME280;3957;48.61947800;9.05303100;2023-09-12T02:11:22;95765.03;;;15.31;100.00
7824;BME280;3957;48.61947800;9.05303100;2023-09-12T02:12:24;95759.88;;;15.29;100.00
7824;BME280;3957;48.61947800;9.05303100;2023-09-12T02:13:26;95765.78;;;15.26;100.00
7824;BME280;3957;48.61947800;9.05303100;2023-09-12T02:14:28;95766.03;;;15.25;100.00
7824;BME280;3957;48.61947800;9.05303100;2023-09-12T02:15:29;95768.97;;;15.23;100.00
7824;BME280;3957;48.61947800;9.05303100;2023-09-12T02:16:31;95767.31;;;15.22;100.00
7824;BME280;3957;48.61947800;9.05303100;2023-09-12T02:17:33;95769.41;;;15.20;100.00
7824;BME280;3957;48.61947800;9.05303100;2023-09-12T02:18:35;95763.72;;;15.17;100.00
7824;BME280;3957;48.61947800;9.05303100;2023-09-12T02:19:36;95764.75;;;15.16;100.00
7824;BME280;3957;48.61947800;9.05303100;2023-09-12T02:20:39;95769.34;;;15.15;100.00
7824;BME280;3957;48.61947800;9.05303100;2023-09-12T02:21:41;95767.09;;;15.12;100.00
7824;BME280;3957;48.61947800;9.05303100;2023-09-12T02:22:43;95759.25;;;15.10;100.00
7824;BME280;3957;48.61947800;9.05303100;2023-09-12T02:23:45;95759.50;;;15.09;100.00
7824;BME280;3957;48.61947800;9.05303100;2023-09-12T02:24:47;95763.84;;;15.10;100.00
7824;BME280;3957;48.61947800;9.05303100;2023-09-12T02:25:49;95762.22;;;15.09;100.00
7824;BME280;3957;48.61947800;9.05303100;2023-09-12T02:26:51;95760.81;;;15.06;100.00
7824;BME280;3957;48.61947800;9.05303100;2023-09-12T02:27:52;95753.22;;;15.03;100.00
7824;BME280;3957;48.61947800;9.05303100;2023-09-12T02:28:54;95761.78;;;15.00;100.00
7824;BME280;3957;48.61947800;9.05303100;2023-09-12T02:29:55;95759.31;;;14.99;100.00
7824;BME280;3957;48.61947800;9.05303100;2023-09-12T02:30:57;95756.53;;;14.93;100.00
7824;BME280;3957;48.61947800;9.05303100;2023-09-12T02:31:59;95755.13;;;14.91;100.00
7824;BME280;3957;48.61947800;9.05303100;2023-09-12T02:33:00;95750.22;;;14.88;100.00
7824;BME280;3957;48.61947800;9.05303100;2023-09-12T02:34:02;95749.38;;;14.87;100.00
7824;BME280;3957;48.61947800;9.05303100;2023-09-12T02:35:04;95751.75;;;14.84;100.00
7824;BME280;3957;48.61947800;9.05303100;2023-09-12T02:36:06;95750.94;;;14.83;100.00
7824;BME280;3957;48.61947800;9.05303100;2023-09-12T02:37:07;95753.03;;;14.81;100.00
7824;BME280;3957;48.61947800;9.05303100;2023-09-12T02:38:09;95754.34;;;14.78;100.00
7824;BME280;3957;48.61947800;9.05303100;2023-09-12T02:39:10;95752.94;;;14.76;100.00
7824;BME280;3957;48.61947800;9.05303100;2023-09-12T02:40:12;95756.91;;;14.73;100.00
7824;BME280;3957;48.61947800;9.05303100;2023-09-12T02:41:15;95751.78;;;14.72;100.00
7824;BME280;3957;48.61947800;9.05303100;2023-09-12T02:42:17;95748.16;;;14.66;100.00
7824;BME280;3957;48.61947800;9.05303100;2023-09-12T02:43:19;95748.41;;;14.65;100.00
7824;BME280;3957;48.61947800;9.05303100;2023-09-12T02:44:20;95746.97;;;14.62;100.00
7824;BME280;3957;48.61947800;9.05303100;2023-09-12T02:45:22;95747.22;;;14.60;100.00
7824;BME280;3957;48.61947800;9.05303100;2023-09-12T02:46:23;95749.09;;;14.60;100.00
7824;BME280;3957;48.61947800;9.05303100;2023-09-12T02:47:25;95740.78;;;14.61;100.00
7824;BME280;3957;48.61947800;9.05303100;2023-09-12T02:48:26;95747.44;;;14.59;100.00
7824;BME280;3957;48.61947800;9.05303100;2023-09-12T02:49:28;95746.28;;;14.55;100.00
7824;BME280;3957;48.61947800;9.05303100;2023-09-12T02:50:29;95750.38;;;14.57;100.00
7824;BME280;3957;48.61947800;9.05303100;2023-09-12T02:51:31;95748.75;;;14.56;100.00
7824;BME280;3957;48.61947800;9.05303100;2023-09-12T02:52:32;95754.00;;;14.51;100.00
7824;BME280;3957;48.61947800;9.05303100;2023-09-12T02:53:34;95750.28;;;14.52;100.00
7824;BME280;3957;48.61947800;9.05303100;2023-09-12T02:54:36;95751.00;;;14.48;100.00
7824;BME280;3957;48.61947800;9.05303100;2023-09-12T02:55:41;95753.69;;;14.48;100.00
7824;BME280;3957;48.61947800;9.05303100;2023-09-12T02:56:43;95749.69;;;14.50;100.00
7824;BME280;3957;48.61947800;9.05303100;2023-09-12T02:57:45;95754.94;;;14.57;100.00
7824;BME280;3957;48.61947800;9.05303100;2023-09-12T02:58:48;95755.06;;;14.62;100.00
7824;BME280;3957;48.61947800;9.05303100;2023-09-12T02:59:50;95751.34;;;14.63;100.00
7824;BME280;3957;48.61947800;9.05303100;2023-09-12T03:00:51;95751.91;;;14.65;100.00
7824;BME280;3957;48.61947800;9.05303100;2023-09-12T03:01:56;95755.19;;;14.67;100.00
7824;BME280;3957;48.61947800;9.05303100;2023-09-12T03:02:57;95751.53;;;14.73;100.00
7824;BME280;3957;48.61947800;9.05303100;2023-09-12T03:03:59;95758.31;;;14.76;100.00
7824;BME280;3957;48.61947800;9.05303100;2023-09-12T03:05:01;95752.13;;;14.75;100.00
7824;BME280;3957;48.61947800;9.05303100;2023-09-12T03:06:03;95754.00;;;14.75;100.00
7824;BME280;3957;48.61947800;9.05303100;2023-09-12T03:07:05;95752.69;;;14.77;100.00
7824;BME280;3957;48.61947800;9.05303100;2023-09-12T03:08:06;95752.69;;;14.77;100.00
7824;BME280;3957;48.61947800;9.05303100;2023-09-12T03:09:08;95756.34;;;14.83;100.00
7824;BME280;3957;48.61947800;9.05303100;2023-09-12T03:10:10;95754.31;;;14.90;100.00
7824;BME280;3957;48.61947800;9.05303100;2023-09-12T03:11:11;95754.75;;;14.99;100.00
7824;BME280;3957;48.61947800;9.05303100;2023-09-12T03:12:13;95750.94;;;15.12;100.00
7824;BME280;3957;48.61947800;9.05303100;2023-09-12T03:13:15;95755.88;;;15.15;100.00
7824;BME280;3957;48.61947800;9.05303100;2023-09-12T03:14:16;95751.03;;;15.17;100.00
7824;BME280;3957;48.61947800;9.05303100;2023-09-12T03:15:18;95754.09;;;15.21;100.00
7824;BME280;3957;48.61947800;9.05303100;2023-09-12T03:16:20;95749.25;;;15.23;100.00
7824;BME280;3957;48.61947800;9.05303100;2023-09-12T03:17:22;95747.59;;;15.22;100.00
7824;BME280;3957;48.61947800;9.05303100;2023-09-12T03:18:23;95740.59;;;15.21;100.00
7824;BME280;3957;48.61947800;9.05303100;2023-09-12T03:19:25;95738.72;;;15.21;100.00
7824;BME280;3957;48.61947800;9.05303100;2023-09-12T03:20:26;95738.16;;;15.19;100.00
7824;BME280;3957;48.61947800;9.05303100;2023-09-12T03:21:28;95741.06;;;15.18;100.00
7824;BME280;3957;48.61947800;9.05303100;2023-09-12T03:22:30;95741.31;;;15.16;100.00
7824;BME280;3957;48.61947800;9.05303100;2023-09-12T03:23:33;95739.94;;;15.13;100.00
7824;BME280;3957;48.61947800;9.05303100;2023-09-12T03:24:35;95740.16;;;15.12;100.00
7824;BME280;3957;48.61947800;9.05303100;2023-09-12T03:25:37;95743.09;;;15.10;100.00
7824;BME280;3957;48.61947800;9.05303100;2023-09-12T03:26:39;95744.19;;;15.09;100.00
7824;BME280;3957;48.61947800;9.05303100;2023-09-12T03:27:41;95736.56;;;15.06;100.00
7824;BME280;3957;48.61947800;9.05303100;2023-09-12T03:28:42;95742.78;;;15.07;100.00
7824;BME280;3957;48.61947800;9.05303100;2023-09-12T03:29:47;95742.44;;;15.03;100.00
7824;BME280;3957;48.61947800;9.05303100;2023-09-12T03:30:48;95742.91;;;15.00;100.00
7824;BME280;3957;48.61947800;9.05303100;2023-09-12T03:31:50;95738.16;;;14.90;100.00
7824;BME280;3957;48.61947800;9.05303100;2023-09-12T03:32:52;95738.84;;;14.86;100.00
7824;BME280;3957;48.61947800;9.05303100;2023-09-12T03:33:53;95730.22;;;14.84;100.00
7824;BME280;3957;48.61947800;9.05303100;2023-09-12T03:34:55;95743.69;;;14.84;100.00
7824;BME280;3957;48.61947800;9.05303100;2023-09-12T03:35:57;95753.03;;;14.93;100.00
7824;BME280;3957;48.61947800;9.05303100;2023-09-12T03:36:58;95744.44;;;14.96;100.00
7824;BME280;3957;48.61947800;9.05303100;2023-09-12T03:38:00;95743.03;;;15.05;100.00
7824;BME280;3957;48.61947800;9.05303100;2023-09-12T03:39:03;95734.56;;;15.13;100.00
7824;BME280;3957;48.61947800;9.05303100;2023-09-12T03:40:07;95734.38;;;15.20;100.00
7824;BME280;3957;48.61947800;9.05303100;2023-09-12T03:41:09;95736.81;;;15.22;100.00
7824;BME280;3957;48.61947800;9.05303100;2023-09-12T03:42:11;95734.97;;;15.22;100.00
7824;BME280;3957;48.61947800;9.05303100;2023-09-12T03:43:13;95726.03;;;15.22;100.00
7824;BME280;3957;48.61947800;9.05303100;2023-09-12T03:44:14;95729.81;;;15.21;100.00
7824;BME280;3957;48.61947800;9.05303100;2023-09-12T03:45:16;95728.44;;;15.18;100.00
7824;BME280;3957;48.61947800;9.05303100;2023-09-12T03:46:17;95722.69;;;15.14;100.00
7824;BME280;3957;48.61947800;9.05303100;2023-09-12T03:47:19;95721.88;;;15.14;100.00
7824;BME280;3957;48.61947800;9.05303100;2023-09-12T03:48:20;95731.50;;;15.10;100.00
7824;BME280;3957;48.61947800;9.05303100;2023-09-12T03:49:22;95726.38;;;15.08;100.00
7824;BME280;3957;48.61947800;9.05303100;2023-09-12T03:50:24;95733.63;;;15.08;100.00
7824;BME280;3957;48.61947800;9.05303100;2023-09-12T03:51:25;95723.91;;;15.07;100.00
7824;BME280;3957;48.61947800;9.05303100;2023-09-12T03:52:27;95727.91;;;15.04;100.00
7824;BME280;3957;48.61947800;9.05303100;2023-09-12T03:53:29;95732.13;;;15.00;100.00
7824;BME280;3957;48.61947800;9.05303100;2023-09-12T03:54:31;95731.53;;;14.98;100.00
7824;BME280;3957;48.61947800;9.05303100;2023-09-12T03:55:32;95733.31;;;14.92;100.00
7824;BME280;3957;48.61947800;9.05303100;2023-09-12T03:56:34;95732.53;;;14.92;100.00
7824;BME280;3957;48.61947800;9.05303100;2023-09-12T03:57:36;95737.81;;;14.87;100.00
7824;BME280;3957;48.61947800;9.05303100;2023-09-12T03:58:38;95733.38;;;14.81;100.00
7824;BME280;3957;48.61947800;9.05303100;2023-09-12T03:59:40;95733.84;;;14.77;100.00
7824;BME280;3957;48.61947800;9.05303100;2023-09-12T04:00:42;95735.84;;;14.70;100.00
7824;BME280;3957;48.61947800;9.05303100;2023-09-12T04:01:43;95733.66;;;14.67;100.00
7824;BME280;3957;48.61947800;9.05303100;2023-09-12T04:02:45;95726.28;;;14.62;100.00
7824;BME280;3957;48.61947800;9.05303100;2023-09-12T04:03:47;95729.16;;;14.61;100.00
7824;BME280;3957;48.61947800;9.05303100;2023-09-12T04:04:49;95731.28;;;14.59;100.00
7824;BME280;3957;48.61947800;9.05303100;2023-09-12T04:05:51;95738.56;;;14.58;100.00
7824;BME280;3957;48.61947800;9.05303100;2023-09-12T04:06:53;95732.59;;;14.56;100.00
7824;BME280;3957;48.61947800;9.05303100;2023-09-12T04:07:56;95736.31;;;14.55;100.00
7824;BME280;3957;48.61947800;9.05303100;2023-09-12T04:08:57;95739.25;;;14.54;100.00
7824;BME280;3957;48.61947800;9.05303100;2023-09-12T04:09:58;95743.00;;;14.53;100.00
7824;BME280;3957;48.61947800;9.05303100;2023-09-12T04:11:00;95737.63;;;14.53;100.00
7824;BME280;3957;48.61947800;9.05303100;2023-09-12T04:12:02;95733.31;;;14.52;100.00
7824;BME280;3957;48.61947800;9.05303100;2023-09-12T04:13:03;95740.56;;;14.51;100.00
7824;BME280;3957;48.61947800;9.05303100;2023-09-12T04:14:05;95734.34;;;14.51;100.00
7824;BME280;3957;48.61947800;9.05303100;2023-09-12T04:15:06;95738.94;;;14.50;100.00
7824;BME280;3957;48.61947800;9.05303100;2023-09-12T04:16:08;95738.94;;;14.50;100.00
7824;BME280;3957;48.61947800;9.05303100;2023-09-12T04:17:10;95738.34;;;14.48;100.00
7824;BME280;3957;48.61947800;9.05303100;2023-09-12T04:18:11;95741.28;;;14.46;100.00
7824;BME280;3957;48.61947800;9.05303100;2023-09-12T04:19:13;95739.63;;;14.45;100.00
7824;BME280;3957;48.61947800;9.05303100;2023-09-12T04:20:15;95740.47;;;14.46;100.00
7824;BME280;3957;48.61947800;9.05303100;2023-09-12T04:21:17;95741.88;;;14.49;100.00
7824;BME280;3957;48.61947800;9.05303100;2023-09-12T04:22:19;95738.56;;;14.46;100.00
7824;BME280;3957;48.61947800;9.05303100;2023-09-12T04:23:25;95735.88;;;14.46;100.00
7824;BME280;3957;48.61947800;9.05303100;2023-09-12T04:24:27;95734.25;;;14.45;100.00
7824;BME280;3957;48.61947800;9.05303100;2023-09-12T04:25:30;95736.69;;;14.47;100.00
7824;BME280;3957;48.61947800;9.05303100;2023-09-12T04:26:31;95733.19;;;14.46;100.00
7824;BME280;3957;48.61947800;9.05303100;2023-09-12T04:27:33;95738.56;;;14.46;100.00
7824;BME280;3957;48.61947800;9.05303100;2023-09-12T04:28:36;95736.94;;;14.45;100.00
7824;BME280;3957;48.61947800;9.05303100;2023-09-12T04:29:38;95735.88;;;14.46;100.00
7824;BME280;3957;48.61947800;9.05303100;2023-09-12T04:30:40;95738.00;;;14.44;100.00
7824;BME280;3957;48.61947800;9.05303100;2023-09-12T04:31:44;95727.69;;;14.41;100.00
7824;BME280;3957;48.61947800;9.05303100;2023-09-12T04:32:45;95730.63;;;14.40;100.00
7824;BME280;3957;48.61947800;9.05303100;2023-09-12T04:33:47;95733.91;;;14.42;100.00
7824;BME280;3957;48.61947800;9.05303100;2023-09-12T04:34:49;95727.44;;;14.43;100.00
7824;BME280;3957;48.61947800;9.05303100;2023-09-12T04:35:51;95726.75;;;14.48;100.00
7824;BME280;3957;48.61947800;9.05303100;2023-09-12T04:36:53;95722.78;;;14.50;100.00
7824;BME280;3957;48.61947800;9.05303100;2023-09-12T04:37:56;95734.13;;;14.52;100.00
7824;BME280;3957;48.61947800;9.05303100;2023-09-12T04:38:57;95730.63;;;14.52;100.00
7824;BME280;3957;48.61947800;9.05303100;2023-09-12T04:39:59;95728.25;;;14.55;100.00
7824;BME280;3957;48.61947800;9.05303100;2023-09-12T04:41:02;95730.50;;;14.58;100.00
7824;BME280;3957;48.61947800;9.05303100;2023-09-12T04:42:06;95724.25;;;14.58;100.00
7824;BME280;3957;48.61947800;9.05303100;2023-09-12T04:43:07;95729.09;;;14.56;100.00
7824;BME280;3957;48.61947800;9.05303100;2023-09-12T04:44:09;95732.59;;;14.56;100.00
7824;BME280;3957;48.61947800;9.05303100;2023-09-12T04:45:11;95728.72;;;14.52;100.00
7824;BME280;3957;48.61947800;9.05303100;2023-09-12T04:46:13;95731.66;;;14.51;100.00
7824;BME280;3957;48.61947800;9.05303100;2023-09-12T04:47:14;95726.75;;;14.48;100.00
7824;BME280;3957;48.61947800;9.05303100;2023-09-12T04:48:16;95727.81;;;14.46;100.00
7824;BME280;3957;48.61947800;9.05303100;2023-09-12T04:49:18;95727.81;;;14.46;100.00
7824;BME280;3957;48.61947800;9.05303100;2023-09-12T04:50:20;95732.16;;;14.48;100.00
7824;BME280;3957;48.61947800;9.05303100;2023-09-12T04:51:21;95736.25;;;14.50;100.00
7824;BME280;3957;48.61947800;9.05303100;2023-09-12T04:52:23;95732.22;;;14.53;100.00
7824;BME280;3957;48.61947800;9.05303100;2023-09-12T04:53:25;95729.91;;;14.56;100.00
7824;BME280;3957;48.61947800;9.05303100;2023-09-12T04:54:26;95736.19;;;14.62;100.00
7824;BME280;3957;48.61947800;9.05303100;2023-09-12T04:55:28;95725.22;;;14.63;100.00
7824;BME280;3957;48.61947800;9.05303100;2023-09-12T04:56:30;95732.00;;;14.66;100.00
7824;BME280;3957;48.61947800;9.05303100;2023-09-12T04:57:31;95735.06;;;14.70;100.00
7824;BME280;3957;48.61947800;9.05303100;2023-09-12T04:58:34;95735.38;;;14.73;100.00
7824;BME280;3957;48.61947800;9.05303100;2023-09-12T04:59:36;95736.78;;;14.76;100.00
7824;BME280;3957;48.61947800;9.05303100;2023-09-12T05:00:39;95737.38;;;14.78;100.00